sensor_id;sensor_type;location;lat;lon;timestamp;temperature;humidity
49242;DHT22;35079;52.704;13.814;2023-05-19T00:01:13;8.50;99.90
49242;DHT22;35079;52.704;13.814;2023-05-19T00:03:55;8.50;99.90
49242;DHT22;35079;52.704;13.814;2023-05-19T00:06:28;8.40;99.90
49242;DHT22;35079;52.704;13.814;2023-05-19T00:09:01;8.50;99.90
49242;DHT22;35079;52.704;13.814;2023-05-19T00:11:27;8.40;99.90
49242;DHT22;35079;52.704;13.814;2023-05-19T00:13:55;8.50;99.90
49242;DHT22;35079;52.704;13.814;2023-05-19T00:16:22;8.40;99.90
49242;DHT22;35079;52.704;13.814;2023-05-19T00:18:48;8.30;99.90
49242;DHT22;35079;52.704;13.814;2023-05-19T00:21:14;8.20;99.90
49242;DHT22;35079;52.704;13.814;2023-05-19T00:23:41;8.20;99.90
49242;DHT22;35079;52.704;13.814;2023-05-19T00:26:06;8.30;99.90
49242;DHT22;35079;52.704;13.814;2023-05-19T00:28:32;8.40;99.90
49242;DHT22;35079;52.704;13.814;2023-05-19T00:30:58;8.30;99.90
49242;DHT22;35079;52.704;13.814;2023-05-19T00:33:23;8.40;99.90
49242;DHT22;35079;52.704;13.814;2023-05-19T00:35:49;8.30;99.90
49242;DHT22;35079;52.704;13.814;2023-05-19T00:38:15;8.40;99.90
49242;DHT22;35079;52.704;13.814;2023-05-19T00:40:40;8.30;99.90
49242;DHT22;35079;52.704;13.814;2023-05-19T00:43:06;8.20;99.90
49242;DHT22;35079;52.704;13.814;2023-05-19T00:45:33;8.20;99.90
49242;DHT22;35079;52.704;13.814;2023-05-19T00:47:59;8.10;99.90
49242;DHT22;35079;52.704;13.814;2023-05-19T00:50:25;8.10;99.90
49242;DHT22;35079;52.704;13.814;2023-05-19T00:52:53;8.20;99.90
49242;DHT22;35079;52.704;13.814;2023-05-19T00:55:26;8.10;99.90
49242;DHT22;35079;52.704;13.814;2023-05-19T00:57:54;8.10;99.90
49242;DHT22;35079;52.704;13.814;2023-05-19T01:00:20;8.10;99.90
49242;DHT22;35079;52.704;13.814;2023-05-19T01:02:45;8.10;99.90
49242;DHT22;35079;52.704;13.814;2023-05-19T01:05:12;8.20;99.90
49242;DHT22;35079;52.704;13.814;2023-05-19T01:07:39;8.20;99.90
49242;DHT22;35079;52.704;13.814;2023-05-19T01:10:06;8.10;99.90
49242;DHT22;35079;52.704;13.814;2023-05-19T01:12:32;8.10;99.90
49242;DHT22;35079;52.704;13.814;2023-05-19T01:14:58;8.20;99.90
49242;DHT22;35079;52.704;13.814;2023-05-19T01:20:21;8.10;99.90
49242;DHT22;35079;52.704;13.814;2023-05-19T01:31:22;8.20;99.90
49242;DHT22;35079;52.704;13.814;2023-05-19T01:33:51;8.20;99.90
49242;DHT22;35079;52.704;13.814;2023-05-19T01:36:19;8.30;99.90
49242;DHT22;35079;52.704;13.814;2023-05-19T01:38:48;8.30;99.90
49242;DHT22;35079;52.704;13.814;2023-05-19T01:41:15;8.20;99.90
49242;DHT22;35079;52.704;13.814;2023-05-19T01:43:42;8.20;99.90
49242;DHT22;35079;52.704;13.814;2023-05-19T01:46:08;8.00;99.90
49242;DHT22;35079;52.704;13.814;2023-05-19T01:48:34;8.20;99.90
49242;DHT22;35079;52.704;13.814;2023-05-19T01:51:01;8.20;99.90
49242;DHT22;35079;52.704;13.814;2023-05-19T01:53:26;8.20;99.90
49242;DHT22;35079;52.704;13.814;2023-05-19T01:55:53;8.20;99.90
49242;DHT22;35079;52.704;13.814;2023-05-19T02:11:50;8.10;99.90
49242;DHT22;35079;52.704;13.814;2023-05-19T02:14:23;8.20;99.90
49242;DHT22;35079;52.704;13.814;2023-05-19T02:16:49;8.10;99.90
49242;DHT22;35079;52.704;13.814;2023-05-19T02:19:27;8.00;99.90
49242;DHT22;35079;52.704;13.814;2023-05-19T02:21:53;7.90;99.90
49242;DHT22;35079;52.704;13.814;2023-05-19T02:24:19;7.90;99.90
49242;DHT22;35079;52.704;13.814;2023-05-19T02:26:47;8.00;99.90
49242;DHT22;35079;52.704;13.814;2023-05-19T02:29:13;8.10;99.90
49242;DHT22;35079;52.704;13.814;2023-05-19T02:31:39;7.90;99.90
49242;DHT22;35079;52.704;13.814;2023-05-19T02:34:04;8.00;99.90
49242;DHT22;35079;52.704;13.814;2023-05-19T02:36:33;7.90;99.90
49242;DHT22;35079;52.704;13.814;2023-05-19T02:38:59;8.00;99.90
49242;DHT22;35079;52.704;13.814;2023-05-19T02:41:26;7.90;99.90
49242;DHT22;35079;52.704;13.814;2023-05-19T02:43:52;7.90;99.90
49242;DHT22;35079;52.704;13.814;2023-05-19T02:46:18;7.80;99.90
49242;DHT22;35079;52.704;13.814;2023-05-19T02:48:43;7.80;99.90
49242;DHT22;35079;52.704;13.814;2023-05-19T02:51:09;7.80;99.90
49242;DHT22;35079;52.704;13.814;2023-05-19T02:53:35;7.90;99.90
49242;DHT22;35079;52.704;13.814;2023-05-19T02:56:01;7.90;99.90
49242;DHT22;35079;52.704;13.814;2023-05-19T02:58:26;7.80;99.90
49242;DHT22;35079;52.704;13.814;2023-05-19T03:00:52;7.80;99.90
49242;DHT22;35079;52.704;13.814;2023-05-19T03:03:17;7.70;99.90
49242;DHT22;35079;52.704;13.814;2023-05-19T03:05:44;7.80;99.90
49242;DHT22;35079;52.704;13.814;2023-05-19T03:08:10;7.70;99.90
49242;DHT22;35079;52.704;13.814;2023-05-19T03:10:35;7.80;99.90
49242;DHT22;35079;52.704;13.814;2023-05-19T03:13:01;7.80;99.90
49242;DHT22;35079;52.704;13.814;2023-05-19T03:15:27;7.80;99.90
49242;DHT22;35079;52.704;13.814;2023-05-19T03:17:53;7.80;99.90
49242;DHT22;35079;52.704;13.814;2023-05-19T03:20:19;7.70;99.90
49242;DHT22;35079;52.704;13.814;2023-05-19T03:22:45;7.90;99.90
49242;DHT22;35079;52.704;13.814;2023-05-19T03:25:11;7.80;99.90
49242;DHT22;35079;52.704;13.814;2023-05-19T03:27:36;7.80;99.90
49242;DHT22;35079;52.704;13.814;2023-05-19T03:30:02;7.90;99.90
49242;DHT22;35079;52.704;13.814;2023-05-19T03:32:29;7.90;99.90
49242;DHT22;35079;52.704;13.814;2023-05-19T03:34:56;8.00;99.90
49242;DHT22;35079;52.704;13.814;2023-05-19T03:37:22;8.00;99.90
49242;DHT22;35079;52.704;13.814;2023-05-19T03:39:48;8.00;99.90
49242;DHT22;35079;52.704;13.814;2023-05-19T03:42:13;8.10;99.90
49242;DHT22;35079;52.704;13.814;2023-05-19T03:44:39;8.20;99.90
49242;DHT22;35079;52.704;13.814;2023-05-19T03:47:05;8.20;99.90
49242;DHT22;35079;52.704;13.814;2023-05-19T03:49:30;8.20;99.90
49242;DHT22;35079;52.704;13.814;2023-05-19T03:51:56;8.30;99.90
49242;DHT22;35079;52.704;13.814;2023-05-19T03:54:22;8.40;99.90
49242;DHT22;35079;52.704;13.814;2023-05-19T03:56:48;8.30;99.90
49242;DHT22;35079;52.704;13.814;2023-05-19T03:59:13;8.50;99.90
49242;DHT22;35079;52.704;13.814;2023-05-19T04:01:40;8.50;99.90
49242;DHT22;35079;52.704;13.814;2023-05-19T04:04:06;8.60;99.90
49242;DHT22;35079;52.704;13.814;2023-05-19T04:06:32;8.60;99.90
49242;DHT22;35079;52.704;13.814;2023-05-19T04:08:58;8.60;99.90
49242;DHT22;35079;52.704;13.814;2023-05-19T04:11:24;8.40;99.90
49242;DHT22;35079;52.704;13.814;2023-05-19T04:13:50;8.40;99.90
49242;DHT22;35079;52.704;13.814;2023-05-19T04:16:15;8.50;99.90
49242;DHT22;35079;52.704;13.814;2023-05-19T04:18:41;8.60;99.90
49242;DHT22;35079;52.704;13.814;2023-05-19T04:21:09;8.70;99.90
49242;DHT22;35079;52.704;13.814;2023-05-19T04:23:35;8.80;99.90
49242;DHT22;35079;52.704;13.814;2023-05-19T04:26:01;8.90;99.90
49242;DHT22;35079;52.704;13.814;2023-05-19T04:28:27;9.00;99.90
49242;DHT22;35079;52.704;13.814;2023-05-19T04:30:54;9.10;99.90
49242;DHT22;35079;52.704;13.814;2023-05-19T04:33:20;9.20;99.90
49242;DHT22;35079;52.704;13.814;2023-05-19T04:35:46;9.30;99.90
49242;DHT22;35079;52.704;13.814;2023-05-19T04:38:12;9.40;99.90
49242;DHT22;35079;52.704;13.814;2023-05-19T04:40:37;9.50;99.90
49242;DHT22;35079;52.704;13.814;2023-05-19T04:43:05;9.60;99.90
49242;DHT22;35079;52.704;13.814;2023-05-19T04:45:31;9.60;99.90
49242;DHT22;35079;52.704;13.814;2023-05-19T04:47:57;9.60;99.90
49242;DHT22;35079;52.704;13.814;2023-05-19T04:50:23;9.70;99.90
49242;DHT22;35079;52.704;13.814;2023-05-19T04:52:49;9.80;99.90
49242;DHT22;35079;52.704;13.814;2023-05-19T04:55:15;9.90;99.90
49242;DHT22;35079;52.704;13.814;2023-05-19T04:57:41;9.90;99.90
49242;DHT22;35079;52.704;13.814;2023-05-19T05:00:08;10.10;99.90
49242;DHT22;35079;52.704;13.814;2023-05-19T05:02:37;10.10;99.90
49242;DHT22;35079;52.704;13.814;2023-05-19T05:05:02;10.40;99.90
49242;DHT22;35079;52.704;13.814;2023-05-19T05:07:28;10.40;99.90
49242;DHT22;35079;52.704;13.814;2023-05-19T05:09:54;10.50;99.90
49242;DHT22;35079;52.704;13.814;2023-05-19T05:12:20;10.70;99.90
49242;DHT22;35079;52.704;13.814;2023-05-19T05:14:46;10.70;99.90
49242;DHT22;35079;52.704;13.814;2023-05-19T05:17:12;10.80;99.90
49242;DHT22;35079;52.704;13.814;2023-05-19T05:19:39;10.90;99.90
49242;DHT22;35079;52.704;13.814;2023-05-19T05:22:05;11.00;99.90
49242;DHT22;35079;52.704;13.814;2023-05-19T05:24:31;11.20;99.90
49242;DHT22;35079;52.704;13.814;2023-05-19T05:26:57;11.40;99.90
49242;DHT22;35079;52.704;13.814;2023-05-19T05:29:24;11.50;99.90
49242;DHT22;35079;52.704;13.814;2023-05-19T05:31:50;11.50;99.90
49242;DHT22;35079;52.704;13.814;2023-05-19T05:34:16;11.70;99.90
49242;DHT22;35079;52.704;13.814;2023-05-19T05:36:41;11.80;99.90
49242;DHT22;35079;52.704;13.814;2023-05-19T05:39:07;12.00;99.90
49242;DHT22;35079;52.704;13.814;2023-05-19T05:41:33;12.10;99.90
49242;DHT22;35079;52.704;13.814;2023-05-19T05:44:01;12.20;99.90
49242;DHT22;35079;52.704;13.814;2023-05-19T05:46:27;12.40;99.90
49242;DHT22;35079;52.704;13.814;2023-05-19T05:48:53;12.50;99.90
49242;DHT22;35079;52.704;13.814;2023-05-19T05:51:23;12.40;99.90
49242;DHT22;35079;52.704;13.814;2023-05-19T05:53:51;12.40;99.90
49242;DHT22;35079;52.704;13.814;2023-05-19T05:56:18;12.50;99.90
49242;DHT22;35079;52.704;13.814;2023-05-19T05:58:44;12.50;99.90
49242;DHT22;35079;52.704;13.814;2023-05-19T06:01:10;12.60;99.90
49242;DHT22;35079;52.704;13.814;2023-05-19T06:03:41;12.70;99.90
49242;DHT22;35079;52.704;13.814;2023-05-19T06:06:09;12.80;99.90
49242;DHT22;35079;52.704;13.814;2023-05-19T06:08:36;12.70;99.90
49242;DHT22;35079;52.704;13.814;2023-05-19T06:11:02;12.80;99.90
49242;DHT22;35079;52.704;13.814;2023-05-19T06:13:34;12.80;99.90
49242;DHT22;35079;52.704;13.814;2023-05-19T06:16:00;13.00;99.90
49242;DHT22;35079;52.704;13.814;2023-05-19T06:18:27;13.00;99.90
49242;DHT22;35079;52.704;13.814;2023-05-19T06:20:56;13.40;99.90
49242;DHT22;35079;52.704;13.814;2023-05-19T06:23:25;13.50;99.90
49242;DHT22;35079;52.704;13.814;2023-05-19T06:25:53;13.90;99.90
49242;DHT22;35079;52.704;13.814;2023-05-19T06:28:19;13.80;99.90
49242;DHT22;35079;52.704;13.814;2023-05-19T06:30:45;14.10;99.90
49242;DHT22;35079;52.704;13.814;2023-05-19T06:33:10;14.10;99.90
49242;DHT22;35079;52.704;13.814;2023-05-19T06:35:36;14.10;99.90
49242;DHT22;35079;52.704;13.814;2023-05-19T06:38:02;14.40;99.90
49242;DHT22;35079;52.704;13.814;2023-05-19T06:40:28;14.50;99.90
49242;DHT22;35079;52.704;13.814;2023-05-19T06:42:53;14.50;99.90
49242;DHT22;35079;52.704;13.814;2023-05-19T06:45:19;14.40;99.90
49242;DHT22;35079;52.704;13.814;2023-05-19T06:47:47;14.50;99.90
49242;DHT22;35079;52.704;13.814;2023-05-19T06:50:15;14.50;99.90
49242;DHT22;35079;52.704;13.814;2023-05-19T06:52:51;14.60;99.90
49242;DHT22;35079;52.704;13.814;2023-05-19T06:58:19;14.70;99.90
49242;DHT22;35079;52.704;13.814;2023-05-19T07:00:45;14.90;99.90
49242;DHT22;35079;52.704;13.814;2023-05-19T07:03:10;14.90;99.90
49242;DHT22;35079;52.704;13.814;2023-05-19T07:05:36;15.00;99.90
49242;DHT22;35079;52.704;13.814;2023-05-19T07:08:02;14.80;99.90
49242;DHT22;35079;52.704;13.814;2023-05-19T07:10:28;14.90;99.90
49242;DHT22;35079;52.704;13.814;2023-05-19T07:12:54;15.20;99.90
49242;DHT22;35079;52.704;13.814;2023-05-19T07:15:20;15.50;99.90
49242;DHT22;35079;52.704;13.814;2023-05-19T07:17:45;15.40;99.90
49242;DHT22;35079;52.704;13.814;2023-05-19T07:20:11;15.50;99.90
49242;DHT22;35079;52.704;13.814;2023-05-19T07:22:37;15.50;99.90
49242;DHT22;35079;52.704;13.814;2023-05-19T07:25:05;15.50;99.90
49242;DHT22;35079;52.704;13.814;2023-05-19T07:27:31;15.60;99.90
49242;DHT22;35079;52.704;13.814;2023-05-19T07:29:57;15.90;99.90
49242;DHT22;35079;52.704;13.814;2023-05-19T07:32:23;16.10;99.90
49242;DHT22;35079;52.704;13.814;2023-05-19T07:34:48;16.20;99.90
49242;DHT22;35079;52.704;13.814;2023-05-19T07:37:14;16.20;99.30
49242;DHT22;35079;52.704;13.814;2023-05-19T07:39:41;16.40;98.80
49242;DHT22;35079;52.704;13.814;2023-05-19T07:42:06;16.50;98.70
49242;DHT22;35079;52.704;13.814;2023-05-19T07:44:32;16.60;98.10
49242;DHT22;35079;52.704;13.814;2023-05-19T07:46:59;16.80;98.90
49242;DHT22;35079;52.704;13.814;2023-05-19T07:49:25;16.70;98.00
49242;DHT22;35079;52.704;13.814;2023-05-19T07:51:51;16.50;97.50
49242;DHT22;35079;52.704;13.814;2023-05-19T07:54:17;16.50;97.70
49242;DHT22;35079;52.704;13.814;2023-05-19T07:56:43;16.50;98.30
49242;DHT22;35079;52.704;13.814;2023-05-19T07:59:11;16.70;97.70
49242;DHT22;35079;52.704;13.814;2023-05-19T08:01:37;16.60;98.00
49242;DHT22;35079;52.704;13.814;2023-05-19T08:04:04;16.80;98.60
49242;DHT22;35079;52.704;13.814;2023-05-19T08:06:29;17.20;97.20
49242;DHT22;35079;52.704;13.814;2023-05-19T08:08:56;17.50;97.20
49242;DHT22;35079;52.704;13.814;2023-05-19T08:11:22;17.60;96.20
49242;DHT22;35079;52.704;13.814;2023-05-19T08:13:47;17.70;95.90
49242;DHT22;35079;52.704;13.814;2023-05-19T08:16:14;17.80;95.60
49242;DHT22;35079;52.704;13.814;2023-05-19T08:18:39;17.90;95.40
49242;DHT22;35079;52.704;13.814;2023-05-19T08:21:05;17.70;94.10
49242;DHT22;35079;52.704;13.814;2023-05-19T08:23:31;17.40;94.80
49242;DHT22;35079;52.704;13.814;2023-05-19T08:25:58;17.50;94.30
49242;DHT22;35079;52.704;13.814;2023-05-19T08:28:23;17.70;94.40
49242;DHT22;35079;52.704;13.814;2023-05-19T08:30:50;18.00;93.50
49242;DHT22;35079;52.704;13.814;2023-05-19T08:33:17;18.10;94.50
49242;DHT22;35079;52.704;13.814;2023-05-19T08:35:45;18.10;91.50
49242;DHT22;35079;52.704;13.814;2023-05-19T08:38:11;18.30;91.70
49242;DHT22;35079;52.704;13.814;2023-05-19T08:40:37;18.30;91.80
49242;DHT22;35079;52.704;13.814;2023-05-19T08:43:05;18.50;90.60
49242;DHT22;35079;52.704;13.814;2023-05-19T08:45:32;18.50;90.50
49242;DHT22;35079;52.704;13.814;2023-05-19T08:47:58;18.60;91.80
49242;DHT22;35079;52.704;13.814;2023-05-19T08:50:34;18.60;90.40
49242;DHT22;35079;52.704;13.814;2023-05-19T08:53:13;18.50;88.00
49242;DHT22;35079;52.704;13.814;2023-05-19T08:55:49;18.90;87.90
49242;DHT22;35079;52.704;13.814;2023-05-19T08:58:18;19.00;90.30
49242;DHT22;35079;52.704;13.814;2023-05-19T09:00:47;19.10;86.00
49242;DHT22;35079;52.704;13.814;2023-05-19T09:03:14;19.50;85.80
49242;DHT22;35079;52.704;13.814;2023-05-19T09:05:41;20.00;85.70
49242;DHT22;35079;52.704;13.814;2023-05-19T09:08:07;20.40;83.40
49242;DHT22;35079;52.704;13.814;2023-05-19T09:10:33;20.80;75.70
49242;DHT22;35079;52.704;13.814;2023-05-19T09:12:59;20.70;81.00
49242;DHT22;35079;52.704;13.814;2023-05-19T09:15:28;21.40;78.80
49242;DHT22;35079;52.704;13.814;2023-05-19T09:18:11;21.60;71.80
49242;DHT22;35079;52.704;13.814;2023-05-19T09:20:44;21.70;72.70
49242;DHT22;35079;52.704;13.814;2023-05-19T09:23:14;21.40;70.40
49242;DHT22;35079;52.704;13.814;2023-05-19T09:25:47;21.40;71.50
49242;DHT22;35079;52.704;13.814;2023-05-19T09:28:13;21.40;71.80
49242;DHT22;35079;52.704;13.814;2023-05-19T09:30:39;21.30;69.60
49242;DHT22;35079;52.704;13.814;2023-05-19T09:33:04;21.90;74.00
49242;DHT22;35079;52.704;13.814;2023-05-19T09:35:34;22.50;65.60
49242;DHT22;35079;52.704;13.814;2023-05-19T09:38:01;22.60;62.80
49242;DHT22;35079;52.704;13.814;2023-05-19T09:40:27;22.10;62.00
49242;DHT22;35079;52.704;13.814;2023-05-19T09:42:53;21.50;64.10
49242;DHT22;35079;52.704;13.814;2023-05-19T09:45:19;21.20;63.20
49242;DHT22;35079;52.704;13.814;2023-05-19T09:47:45;21.90;64.80
49242;DHT22;35079;52.704;13.814;2023-05-19T09:50:11;22.60;60.50
49242;DHT22;35079;52.704;13.814;2023-05-19T09:52:39;22.50;60.00
49242;DHT22;35079;52.704;13.814;2023-05-19T09:55:11;22.60;60.50
49242;DHT22;35079;52.704;13.814;2023-05-19T09:57:38;23.80;61.40
49242;DHT22;35079;52.704;13.814;2023-05-19T10:00:05;24.10;57.20
49242;DHT22;35079;52.704;13.814;2023-05-19T10:02:45;24.20;54.90
49242;DHT22;35079;52.704;13.814;2023-05-19T10:05:16;24.00;56.80
49242;DHT22;35079;52.704;13.814;2023-05-19T10:07:46;24.50;55.00
49242;DHT22;35079;52.704;13.814;2023-05-19T10:10:14;23.90;56.40
49242;DHT22;35079;52.704;13.814;2023-05-19T10:12:41;24.70;53.30
49242;DHT22;35079;52.704;13.814;2023-05-19T10:15:08;24.90;53.90
49242;DHT22;35079;52.704;13.814;2023-05-19T10:17:39;25.10;52.80
49242;DHT22;35079;52.704;13.814;2023-05-19T10:20:14;24.80;53.70
49242;DHT22;35079;52.704;13.814;2023-05-19T10:22:41;23.40;51.50
49242;DHT22;35079;52.704;13.814;2023-05-19T10:25:08;24.00;53.50
49242;DHT22;35079;52.704;13.814;2023-05-19T10:27:38;24.10;51.40
49242;DHT22;35079;52.704;13.814;2023-05-19T10:30:09;22.90;53.40
49242;DHT22;35079;52.704;13.814;2023-05-19T10:32:38;21.60;56.80
49242;DHT22;35079;52.704;13.814;2023-05-19T10:35:32;22.80;56.80
49242;DHT22;35079;52.704;13.814;2023-05-19T10:41:06;21.20;56.50
49242;DHT22;35079;52.704;13.814;2023-05-19T10:46:23;20.40;59.90
49242;DHT22;35079;52.704;13.814;2023-05-19T10:48:50;20.50;58.00
49242;DHT22;35079;52.704;13.814;2023-05-19T10:51:16;21.50;58.60
49242;DHT22;35079;52.704;13.814;2023-05-19T10:53:42;21.70;58.70
49242;DHT22;35079;52.704;13.814;2023-05-19T10:56:26;21.20;59.50
49242;DHT22;35079;52.704;13.814;2023-05-19T10:58:57;20.60;58.60
49242;DHT22;35079;52.704;13.814;2023-05-19T11:01:32;20.40;60.60
49242;DHT22;35079;52.704;13.814;2023-05-19T11:04:05;21.00;61.70
49242;DHT22;35079;52.704;13.814;2023-05-19T11:06:32;21.30;57.40
49242;DHT22;35079;52.704;13.814;2023-05-19T11:09:11;21.70;58.00
49242;DHT22;35079;52.704;13.814;2023-05-19T11:11:44;22.20;60.70
49242;DHT22;35079;52.704;13.814;2023-05-19T11:14:11;21.80;56.10
49242;DHT22;35079;52.704;13.814;2023-05-19T11:16:39;21.70;56.90
49242;DHT22;35079;52.704;13.814;2023-05-19T11:19:06;22.20;56.90
49242;DHT22;35079;52.704;13.814;2023-05-19T11:24:08;22.30;56.00
49242;DHT22;35079;52.704;13.814;2023-05-19T11:26:41;22.00;55.00
49242;DHT22;35079;52.704;13.814;2023-05-19T11:29:07;21.00;55.70
49242;DHT22;35079;52.704;13.814;2023-05-19T11:31:35;20.80;57.70
49242;DHT22;35079;52.704;13.814;2023-05-19T11:34:01;20.50;57.70
49242;DHT22;35079;52.704;13.814;2023-05-19T11:36:27;20.60;58.80
49242;DHT22;35079;52.704;13.814;2023-05-19T11:38:53;20.00;57.50
49242;DHT22;35079;52.704;13.814;2023-05-19T11:41:19;20.20;58.00
49242;DHT22;35079;52.704;13.814;2023-05-19T11:43:46;19.60;60.60
49242;DHT22;35079;52.704;13.814;2023-05-19T11:46:12;19.50;63.20
49242;DHT22;35079;52.704;13.814;2023-05-19T11:48:38;19.30;61.00
49242;DHT22;35079;52.704;13.814;2023-05-19T11:51:05;19.60;60.80
49242;DHT22;35079;52.704;13.814;2023-05-19T11:53:31;20.00;62.40
49242;DHT22;35079;52.704;13.814;2023-05-19T11:56:02;20.10;58.90
49242;DHT22;35079;52.704;13.814;2023-05-19T11:58:28;20.10;61.40
49242;DHT22;35079;52.704;13.814;2023-05-19T12:00:54;20.10;60.80
49242;DHT22;35079;52.704;13.814;2023-05-19T12:03:21;19.70;58.60
49242;DHT22;35079;52.704;13.814;2023-05-19T12:05:52;19.40;58.50
49242;DHT22;35079;52.704;13.814;2023-05-19T12:08:18;19.60;59.40
49242;DHT22;35079;52.704;13.814;2023-05-19T12:10:47;20.70;60.50
49242;DHT22;35079;52.704;13.814;2023-05-19T12:13:14;21.20;58.20
49242;DHT22;35079;52.704;13.814;2023-05-19T12:15:40;21.40;56.90
49242;DHT22;35079;52.704;13.814;2023-05-19T12:18:06;20.70;58.10
49242;DHT22;35079;52.704;13.814;2023-05-19T12:20:32;20.30;58.80
49242;DHT22;35079;52.704;13.814;2023-05-19T12:23:00;20.70;60.20
49242;DHT22;35079;52.704;13.814;2023-05-19T12:25:29;21.30;58.50
49242;DHT22;35079;52.704;13.814;2023-05-19T12:27:59;21.90;57.90
49242;DHT22;35079;52.704;13.814;2023-05-19T12:30:28;22.00;54.60
49242;DHT22;35079;52.704;13.814;2023-05-19T12:32:57;21.40;55.20
49242;DHT22;35079;52.704;13.814;2023-05-19T12:35:30;21.50;56.00
49242;DHT22;35079;52.704;13.814;2023-05-19T12:38:03;21.80;58.60
49242;DHT22;35079;52.704;13.814;2023-05-19T12:40:29;21.50;58.00
49242;DHT22;35079;52.704;13.814;2023-05-19T12:42:55;21.50;57.40
49242;DHT22;35079;52.704;13.814;2023-05-19T12:45:23;21.40;57.00
49242;DHT22;35079;52.704;13.814;2023-05-19T12:47:51;22.00;59.20
49242;DHT22;35079;52.704;13.814;2023-05-19T12:50:17;21.90;57.20
49242;DHT22;35079;52.704;13.814;2023-05-19T12:52:46;22.10;58.10
49242;DHT22;35079;52.704;13.814;2023-05-19T12:55:13;21.90;57.70
49242;DHT22;35079;52.704;13.814;2023-05-19T12:57:41;21.00;56.10
49242;DHT22;35079;52.704;13.814;2023-05-19T13:00:19;21.20;57.70
49242;DHT22;35079;52.704;13.814;2023-05-19T13:03:05;21.70;56.90
49242;DHT22;35079;52.704;13.814;2023-05-19T13:05:34;21.90;57.00
49242;DHT22;35079;52.704;13.814;2023-05-19T13:08:04;21.90;55.60
49242;DHT22;35079;52.704;13.814;2023-05-19T13:10:32;21.40;57.50
49242;DHT22;35079;52.704;13.814;2023-05-19T13:12:59;22.20;56.30
49242;DHT22;35079;52.704;13.814;2023-05-19T13:15:27;22.20;53.70
49242;DHT22;35079;52.704;13.814;2023-05-19T13:17:53;22.50;54.40
49242;DHT22;35079;52.704;13.814;2023-05-19T13:20:20;21.80;56.70
49242;DHT22;35079;52.704;13.814;2023-05-19T13:22:49;21.10;56.10
49242;DHT22;35079;52.704;13.814;2023-05-19T13:25:15;21.10;56.90
49242;DHT22;35079;52.704;13.814;2023-05-19T13:27:43;20.90;58.50
49242;DHT22;35079;52.704;13.814;2023-05-19T13:30:09;20.80;58.70
49242;DHT22;35079;52.704;13.814;2023-05-19T13:32:35;20.30;59.40
49242;DHT22;35079;52.704;13.814;2023-05-19T13:35:01;20.10;58.30
49242;DHT22;35079;52.704;13.814;2023-05-19T13:37:27;19.80;58.50
49242;DHT22;35079;52.704;13.814;2023-05-19T13:39:53;20.00;60.60
49242;DHT22;35079;52.704;13.814;2023-05-19T13:42:18;20.50;60.20
49242;DHT22;35079;52.704;13.814;2023-05-19T13:44:44;20.60;58.30
49242;DHT22;35079;52.704;13.814;2023-05-19T13:47:10;20.70;58.50
49242;DHT22;35079;52.704;13.814;2023-05-19T13:49:39;20.50;60.40
49242;DHT22;35079;52.704;13.814;2023-05-19T13:52:05;19.90;59.30
49242;DHT22;35079;52.704;13.814;2023-05-19T13:54:32;19.90;60.50
49242;DHT22;35079;52.704;13.814;2023-05-19T13:56:59;20.00;60.60
49242;DHT22;35079;52.704;13.814;2023-05-19T13:59:25;19.90;61.60
49242;DHT22;35079;52.704;13.814;2023-05-19T14:01:51;19.60;59.50
49242;DHT22;35079;52.704;13.814;2023-05-19T14:04:17;19.20;60.30
49242;DHT22;35079;52.704;13.814;2023-05-19T14:06:44;19.00;61.80
49242;DHT22;35079;52.704;13.814;2023-05-19T14:09:10;18.50;61.80
49242;DHT22;35079;52.704;13.814;2023-05-19T14:11:36;18.50;62.90
49242;DHT22;35079;52.704;13.814;2023-05-19T14:14:02;18.20;62.70
49242;DHT22;35079;52.704;13.814;2023-05-19T14:16:28;18.20;63.10
49242;DHT22;35079;52.704;13.814;2023-05-19T14:18:55;18.30;63.50
49242;DHT22;35079;52.704;13.814;2023-05-19T14:21:21;18.30;63.80
49242;DHT22;35079;52.704;13.814;2023-05-19T14:23:47;18.10;63.50
49242;DHT22;35079;52.704;13.814;2023-05-19T14:26:13;18.00;63.30
49242;DHT22;35079;52.704;13.814;2023-05-19T14:28:39;18.10;63.70
49242;DHT22;35079;52.704;13.814;2023-05-19T14:31:05;18.00;64.00
49242;DHT22;35079;52.704;13.814;2023-05-19T14:33:31;18.10;65.20
49242;DHT22;35079;52.704;13.814;2023-05-19T14:35:57;18.30;63.90
49242;DHT22;35079;52.704;13.814;2023-05-19T14:38:25;18.50;65.00
49242;DHT22;35079;52.704;13.814;2023-05-19T14:40:51;18.20;63.30
49242;DHT22;35079;52.704;13.814;2023-05-19T14:43:17;18.30;64.20
49242;DHT22;35079;52.704;13.814;2023-05-19T14:45:43;18.50;65.10
49242;DHT22;35079;52.704;13.814;2023-05-19T14:48:09;18.40;62.90
49242;DHT22;35079;52.704;13.814;2023-05-19T14:50:36;18.30;64.60
49242;DHT22;35079;52.704;13.814;2023-05-19T14:53:02;18.10;64.30
49242;DHT22;35079;52.704;13.814;2023-05-19T14:55:28;18.30;65.80
49242;DHT22;35079;52.704;13.814;2023-05-19T14:57:54;18.50;64.90
49242;DHT22;35079;52.704;13.814;2023-05-19T15:00:22;18.40;64.30
49242;DHT22;35079;52.704;13.814;2023-05-19T15:02:51;18.30;64.40
49242;DHT22;35079;52.704;13.814;2023-05-19T15:05:16;18.40;64.50
49242;DHT22;35079;52.704;13.814;2023-05-19T15:07:42;18.20;65.60
49242;DHT22;35079;52.704;13.814;2023-05-19T15:10:08;18.30;65.00
49242;DHT22;35079;52.704;13.814;2023-05-19T15:12:34;18.30;64.40
49242;DHT22;35079;52.704;13.814;2023-05-19T15:15:00;18.30;65.40
49242;DHT22;35079;52.704;13.814;2023-05-19T15:17:25;18.50;65.00
49242;DHT22;35079;52.704;13.814;2023-05-19T15:19:51;18.70;66.10
49242;DHT22;35079;52.704;13.814;2023-05-19T15:22:17;18.80;65.70
49242;DHT22;35079;52.704;13.814;2023-05-19T15:24:43;18.90;64.30
49242;DHT22;35079;52.704;13.814;2023-05-19T15:27:09;18.70;64.80
49242;DHT22;35079;52.704;13.814;2023-05-19T15:29:34;18.40;65.60
49242;DHT22;35079;52.704;13.814;2023-05-19T15:32:00;18.30;66.20
49242;DHT22;35079;52.704;13.814;2023-05-19T15:34:26;18.00;66.30
49242;DHT22;35079;52.704;13.814;2023-05-19T15:36:52;18.00;67.30
49242;DHT22;35079;52.704;13.814;2023-05-19T15:39:18;17.80;68.00
49242;DHT22;35079;52.704;13.814;2023-05-19T15:41:43;17.90;68.70
49242;DHT22;35079;52.704;13.814;2023-05-19T15:44:09;17.80;67.70
49242;DHT22;35079;52.704;13.814;2023-05-19T15:46:35;17.70;68.00
49242;DHT22;35079;52.704;13.814;2023-05-19T15:49:01;17.60;67.80
49242;DHT22;35079;52.704;13.814;2023-05-19T15:51:27;17.60;67.40
49242;DHT22;35079;52.704;13.814;2023-05-19T15:53:53;17.50;68.90
49242;DHT22;35079;52.704;13.814;2023-05-19T15:56:18;17.60;68.60